RYR50GQ LPFR-LEBL
Flight info
| Callsign | RYR50GQ |
|---|---|
| Flight time | 1h 17m |
| Altitude | 36000 |
| Route | TUPIX Y135 NAPES N747 TOSTO DCT OLPOS DCT BEGOX DCT VLC L34 CASIM DCT MATEX |
| Aircraft | B738/M-SDE2E3FGHIRWXY/LB1 |
Departure
| Time | 2026-05-05 01:04 |
|---|---|
| Airport | Faro - Gago Coutinho International Airport (LPFR) |
Arrival
| Time | 2026-05-05 02:22 |
|---|---|
| Airport | Josep Tarradellas Barcelona-El Prat Airport (LEBL) |
| Time | Latitude | Longitude | Altitude | Speed | Heading |
|---|---|---|---|---|---|
| 2026-05-05 00:50 | 37.01915 | -7.96692 | 33 ft | 0 kts | 9° |
| 2026-05-05 00:56 | 37.01912 | -7.96693 | 33 ft | 2 kts | 9° |
| 2026-05-05 00:56 | 37.01896 | -7.96696 | 33 ft | 3 kts | 9° |
| 2026-05-05 00:57 | 37.01879 | -7.96700 | 33 ft | 2 kts | 9° |
| 2026-05-05 00:57 | 37.01861 | -7.96705 | 33 ft | 3 kts | 27° |
| 2026-05-05 00:57 | 37.01847 | -7.96722 | 33 ft | 3 kts | 61° |
| 2026-05-05 00:57 | 37.01839 | -7.96742 | 33 ft | 3 kts | 66° |
| 2026-05-05 00:58 | 37.01835 | -7.96765 | 33 ft | 3 kts | 96° |
| 2026-05-05 00:58 | 37.01836 | -7.96770 | 33 ft | 0 kts | 100° |
| 2026-05-05 00:59 | 37.01834 | -7.96757 | 33 ft | 4 kts | 100° |
| 2026-05-05 00:59 | 37.01827 | -7.96708 | 33 ft | 8 kts | 99° |
| 2026-05-05 00:59 | 37.01816 | -7.96622 | 33 ft | 12 kts | 99° |
| 2026-05-05 00:59 | 37.01792 | -7.96528 | 33 ft | 11 kts | 137° |
| 2026-05-05 01:00 | 37.01710 | -7.96528 | 33 ft | 14 kts | 189° |
| 2026-05-05 01:00 | 37.01632 | -7.96498 | 33 ft | 9 kts | 99° |
| 2026-05-05 01:00 | 37.01620 | -7.96407 | 33 ft | 13 kts | 99° |
| 2026-05-05 01:00 | 37.01603 | -7.96278 | 33 ft | 17 kts | 99° |
| 2026-05-05 01:01 | 37.01581 | -7.96117 | 33 ft | 21 kts | 99° |
| 2026-05-05 01:01 | 37.01559 | -7.95949 | 33 ft | 16 kts | 99° |
| 2026-05-05 01:01 | 37.01516 | -7.95834 | 33 ft | 13 kts | 158° |
| 2026-05-05 01:01 | 37.01459 | -7.95835 | 33 ft | 8 kts | 189° |
| 2026-05-05 01:02 | 37.01387 | -7.95851 | 33 ft | 12 kts | 195° |
| 2026-05-05 01:02 | 37.01370 | -7.95893 | 33 ft | 6 kts | 278° |
| 2026-05-05 01:02 | 37.01376 | -7.95942 | 33 ft | 3 kts | 279° |
| 2026-05-05 01:02 | 37.01377 | -7.95946 | 33 ft | 0 kts | 279° |
| 2026-05-05 01:04 | 37.01394 | -7.96082 | 33 ft | 54 kts | 279° |
| 2026-05-05 01:04 | 37.01670 | -7.98162 | 235 ft | 161 kts | 279° |
| 2026-05-05 01:04 | 37.01856 | -7.99566 | 940 ft | 170 kts | 280° |
| 2026-05-05 01:05 | 37.02076 | -8.01074 | 1646 ft | 180 kts | 282° |
| 2026-05-05 01:05 | 37.02319 | -8.02650 | 2347 ft | 189 kts | 284° |
| 2026-05-05 01:05 | 37.02395 | -8.04307 | 2977 ft | 197 kts | 266° |
| 2026-05-05 01:05 | 37.01758 | -8.05806 | 3633 ft | 196 kts | 231° |
| 2026-05-05 01:06 | 37.00588 | -8.06589 | 4275 ft | 195 kts | 196° |
| 2026-05-05 01:06 | 36.99237 | -8.06445 | 4793 ft | 198 kts | 161° |
| 2026-05-05 01:06 | 36.98158 | -8.05399 | 5317 ft | 196 kts | 129° |
| 2026-05-05 01:06 | 36.97410 | -8.03999 | 5840 ft | 197 kts | 120° |
| 2026-05-05 01:07 | 36.96706 | -8.02458 | 6341 ft | 212 kts | 118° |
| 2026-05-05 01:07 | 36.95959 | -8.00758 | 6864 ft | 232 kts | 118° |
| 2026-05-05 01:07 | 36.95157 | -7.98911 | 7391 ft | 253 kts | 118° |
| 2026-05-05 01:07 | 36.94280 | -7.96910 | 7914 ft | 274 kts | 119° |
| 2026-05-05 01:08 | 36.93327 | -7.94739 | 8434 ft | 291 kts | 119° |
| 2026-05-05 01:08 | 36.92360 | -7.92524 | 9091 ft | 296 kts | 118° |
| 2026-05-05 01:08 | 36.91720 | -7.90061 | 9781 ft | 299 kts | 97° |
| 2026-05-05 01:08 | 36.91846 | -7.87471 | 10523 ft | 299 kts | 78° |
| 2026-05-05 01:09 | 36.92385 | -7.84981 | 11249 ft | 300 kts | 71° |
| 2026-05-05 01:09 | 36.93108 | -7.82465 | 11990 ft | 314 kts | 68° |
| 2026-05-05 01:09 | 36.93924 | -7.79866 | 12727 ft | 334 kts | 66° |
| 2026-05-05 01:09 | 36.94828 | -7.77076 | 13473 ft | 354 kts | 66° |
| 2026-05-05 01:10 | 36.95785 | -7.74160 | 14208 ft | 379 kts | 66° |
| 2026-05-05 01:10 | 36.96835 | -7.70985 | 14955 ft | 406 kts | 66° |
| 2026-05-05 01:10 | 36.97944 | -7.67646 | 15689 ft | 429 kts | 66° |
| 2026-05-05 01:10 | 36.99124 | -7.64099 | 16427 ft | 450 kts | 66° |
| 2026-05-05 01:11 | 37.00338 | -7.60450 | 17152 ft | 467 kts | 66° |
| 2026-05-05 01:11 | 37.01609 | -7.56626 | 17886 ft | 481 kts | 66° |
| 2026-05-05 01:11 | 37.02914 | -7.52699 | 18619 ft | 492 kts | 66° |
| 2026-05-05 01:11 | 37.04229 | -7.48735 | 19342 ft | 501 kts | 66° |
| 2026-05-05 01:12 | 37.05581 | -7.44662 | 20073 ft | 508 kts | 65° |
| 2026-05-05 01:12 | 37.06952 | -7.40592 | 20671 ft | 517 kts | 65° |
| 2026-05-05 01:12 | 37.08372 | -7.36407 | 21188 ft | 523 kts | 65° |
| 2026-05-05 01:12 | 37.09795 | -7.32227 | 21688 ft | 526 kts | 65° |
| 2026-05-05 01:13 | 37.11234 | -7.27997 | 22190 ft | 528 kts | 65° |
| 2026-05-05 01:13 | 37.12679 | -7.23744 | 22693 ft | 529 kts | 65° |
| 2026-05-05 01:13 | 37.14108 | -7.19529 | 23192 ft | 530 kts | 65° |
| 2026-05-05 01:13 | 37.15555 | -7.15244 | 23696 ft | 530 kts | 65° |
| 2026-05-05 01:14 | 37.16961 | -7.11018 | 24193 ft | 530 kts | 66° |
| 2026-05-05 01:14 | 37.17834 | -7.08116 | 24532 ft | 531 kts | 68° |
| 2026-05-05 01:14 | 37.19359 | -7.02251 | 25214 ft | 532 kts | 71° |
| 2026-05-05 01:14 | 37.20382 | -6.97787 | 25732 ft | 532 kts | 73° |
| 2026-05-05 01:15 | 37.21025 | -6.94799 | 26072 ft | 533 kts | 74° |
| 2026-05-05 01:15 | 37.21949 | -6.90328 | 26572 ft | 533 kts | 75° |
| 2026-05-05 01:15 | 37.22837 | -6.85804 | 27074 ft | 533 kts | 75° |
| 2026-05-05 01:15 | 37.23981 | -6.79777 | 27740 ft | 533 kts | 76° |
| 2026-05-05 01:16 | 37.24546 | -6.76757 | 28073 ft | 533 kts | 76° |
| 2026-05-05 01:16 | 37.25395 | -6.72207 | 28576 ft | 533 kts | 76° |
| 2026-05-05 01:16 | 37.26230 | -6.67693 | 29074 ft | 533 kts | 77° |
| 2026-05-05 01:16 | 37.27052 | -6.63137 | 29576 ft | 533 kts | 77° |
| 2026-05-05 01:17 | 37.27852 | -6.58636 | 30071 ft | 533 kts | 77° |
| 2026-05-05 01:17 | 37.28660 | -6.54073 | 30574 ft | 533 kts | 77° |
| 2026-05-05 01:17 | 37.29462 | -6.49521 | 31075 ft | 532 kts | 77° |
| 2026-05-05 01:17 | 37.30259 | -6.44974 | 31575 ft | 532 kts | 77° |
| 2026-05-05 01:18 | 37.31043 | -6.40475 | 32071 ft | 532 kts | 77° |
| 2026-05-05 01:18 | 37.31849 | -6.35938 | 32571 ft | 531 kts | 77° |
| 2026-05-05 01:18 | 37.32672 | -6.31394 | 33072 ft | 531 kts | 76° |
| 2026-05-05 01:18 | 37.33494 | -6.26890 | 33570 ft | 531 kts | 76° |
| 2026-05-05 01:19 | 37.34323 | -6.22350 | 34071 ft | 530 kts | 76° |
| 2026-05-05 01:19 | 37.35148 | -6.17827 | 34571 ft | 530 kts | 76° |
| 2026-05-05 01:19 | 37.35966 | -6.13361 | 35066 ft | 530 kts | 76° |
| 2026-05-05 01:19 | 37.36813 | -6.08842 | 35566 ft | 529 kts | 76° |
| 2026-05-05 01:20 | 37.37673 | -6.04327 | 35920 ft | 533 kts | 76° |
| 2026-05-05 01:20 | 37.38532 | -5.99752 | 36031 ft | 540 kts | 76° |
| 2026-05-05 01:20 | 37.40245 | -5.90495 | 36056 ft | 545 kts | 76° |
| 2026-05-05 01:21 | 37.42051 | -5.81306 | 36053 ft | 539 kts | 72° |
| 2026-05-05 01:21 | 37.44536 | -5.72486 | 36054 ft | 535 kts | 67° |
| 2026-05-05 01:22 | 37.47353 | -5.63813 | 36053 ft | 532 kts | 65° |
| 2026-05-05 01:22 | 37.50232 | -5.55281 | 36052 ft | 531 kts | 65° |
| 2026-05-05 01:23 | 37.53160 | -5.46713 | 36052 ft | 530 kts | 65° |
| 2026-05-05 01:23 | 37.56073 | -5.38221 | 36052 ft | 530 kts | 65° |
| 2026-05-05 01:24 | 37.59007 | -5.29663 | 36052 ft | 530 kts | 64° |
| 2026-05-05 01:24 | 37.61911 | -5.21164 | 36052 ft | 530 kts | 65° |
| 2026-05-05 01:25 | 37.64654 | -5.13139 | 36052 ft | 530 kts | 65° |
| 2026-05-05 01:25 | 37.67564 | -5.04628 | 36051 ft | 529 kts | 65° |
| 2026-05-05 01:26 | 37.70472 | -4.96113 | 36052 ft | 529 kts | 65° |
| 2026-05-05 01:26 | 37.73397 | -4.87603 | 36052 ft | 529 kts | 64° |
| 2026-05-05 01:27 | 37.76331 | -4.79090 | 36052 ft | 528 kts | 65° |
| 2026-05-05 01:27 | 37.79258 | -4.70555 | 36052 ft | 528 kts | 65° |
| 2026-05-05 01:28 | 37.82174 | -4.62034 | 36052 ft | 528 kts | 65° |
| 2026-05-05 01:28 | 37.85055 | -4.53510 | 36052 ft | 528 kts | 65° |
| 2026-05-05 01:29 | 37.87891 | -4.44957 | 36053 ft | 528 kts | 66° |
| 2026-05-05 01:29 | 37.90724 | -4.36356 | 36053 ft | 528 kts | 66° |
| 2026-05-05 01:30 | 37.93544 | -4.27765 | 36053 ft | 528 kts | 66° |
| 2026-05-05 01:30 | 37.96350 | -4.19198 | 36053 ft | 528 kts | 66° |
| 2026-05-05 01:31 | 37.99160 | -4.10604 | 36053 ft | 528 kts | 66° |
| 2026-05-05 01:31 | 38.02000 | -4.02005 | 36053 ft | 528 kts | 65° |
| 2026-05-05 01:32 | 38.04878 | -3.93439 | 36053 ft | 528 kts | 65° |
| 2026-05-05 01:32 | 38.07736 | -3.84844 | 36052 ft | 528 kts | 65° |
| 2026-05-05 01:33 | 38.10598 | -3.76337 | 36052 ft | 528 kts | 65° |
| 2026-05-05 01:33 | 38.13415 | -3.67671 | 36047 ft | 529 kts | 69° |
| 2026-05-05 01:34 | 38.15498 | -3.58780 | 36047 ft | 529 kts | 75° |
| 2026-05-05 01:34 | 38.17198 | -3.49623 | 36029 ft | 530 kts | 77° |
| 2026-05-05 01:35 | 38.18764 | -3.40529 | 36024 ft | 530 kts | 78° |
| 2026-05-05 01:35 | 38.20308 | -3.31375 | 36023 ft | 530 kts | 78° |
| 2026-05-05 01:36 | 38.21847 | -3.22169 | 36021 ft | 530 kts | 78° |
| 2026-05-05 01:36 | 38.23367 | -3.13049 | 36020 ft | 531 kts | 78° |
| 2026-05-05 01:37 | 38.24904 | -3.03833 | 36020 ft | 531 kts | 78° |
| 2026-05-05 01:37 | 38.26425 | -2.94685 | 36019 ft | 531 kts | 79° |
| 2026-05-05 01:38 | 38.27891 | -2.85477 | 36018 ft | 531 kts | 79° |
| 2026-05-05 01:38 | 38.29378 | -2.76296 | 36018 ft | 531 kts | 78° |
| 2026-05-05 01:39 | 38.30920 | -2.67073 | 36017 ft | 531 kts | 78° |
| 2026-05-05 01:39 | 38.32450 | -2.57876 | 35992 ft | 531 kts | 78° |
| 2026-05-05 01:40 | 38.33966 | -2.48738 | 35986 ft | 531 kts | 78° |
| 2026-05-05 01:40 | 38.35345 | -2.39519 | 35984 ft | 530 kts | 83° |
| 2026-05-05 01:41 | 38.36028 | -2.30129 | 35981 ft | 529 kts | 88° |
| 2026-05-05 01:41 | 38.36357 | -2.20790 | 35972 ft | 528 kts | 90° |
| 2026-05-05 01:42 | 38.36518 | -2.11434 | 35970 ft | 528 kts | 91° |
| 2026-05-05 01:42 | 38.36583 | -2.02140 | 35968 ft | 528 kts | 91° |
| 2026-05-05 01:43 | 38.36959 | -1.97449 | 35968 ft | 530 kts | 78° |
| 2026-05-05 01:43 | 38.38128 | -1.93047 | 35976 ft | 528 kts | 65° |
| 2026-05-05 01:43 | 38.41764 | -1.84922 | 35979 ft | 526 kts | 53° |
| 2026-05-05 01:44 | 38.46006 | -1.77357 | 35977 ft | 524 kts | 50° |
| 2026-05-05 01:44 | 38.50430 | -1.70012 | 35973 ft | 524 kts | 48° |
| 2026-05-05 01:45 | 38.54973 | -1.62690 | 35976 ft | 524 kts | 48° |
| 2026-05-05 01:45 | 38.59515 | -1.55421 | 35979 ft | 524 kts | 48° |
| 2026-05-05 01:46 | 38.64056 | -1.48157 | 35981 ft | 524 kts | 48° |
| 2026-05-05 01:46 | 38.68554 | -1.40866 | 35982 ft | 525 kts | 48° |
| 2026-05-05 01:47 | 38.73087 | -1.33468 | 35982 ft | 526 kts | 49° |
| 2026-05-05 01:47 | 38.77562 | -1.26084 | 35981 ft | 526 kts | 49° |
| 2026-05-05 01:48 | 38.82045 | -1.18652 | 35974 ft | 527 kts | 49° |
| 2026-05-05 01:48 | 38.86514 | -1.11242 | 35967 ft | 527 kts | 49° |
| 2026-05-05 01:49 | 38.91011 | -1.03777 | 35964 ft | 527 kts | 49° |
| 2026-05-05 01:49 | 38.95482 | -0.96348 | 35963 ft | 528 kts | 49° |
| 2026-05-05 01:50 | 38.99947 | -0.88849 | 35972 ft | 528 kts | 49° |
| 2026-05-05 01:50 | 39.04560 | -0.81489 | 35977 ft | 523 kts | 40° |
| 2026-05-05 01:51 | 39.10186 | -0.75695 | 35989 ft | 515 kts | 28° |
| 2026-05-05 01:51 | 39.16223 | -0.70814 | 35974 ft | 512 kts | 24° |
| 2026-05-05 01:52 | 39.22401 | -0.66268 | 35967 ft | 511 kts | 22° |
| 2026-05-05 01:52 | 39.28612 | -0.61839 | 35965 ft | 510 kts | 22° |
| 2026-05-05 01:53 | 39.34827 | -0.57484 | 35964 ft | 510 kts | 21° |
| 2026-05-05 01:53 | 39.40956 | -0.53269 | 35963 ft | 510 kts | 21° |
| 2026-05-05 01:54 | 39.47165 | -0.48742 | 35968 ft | 513 kts | 25° |
| 2026-05-05 01:54 | 39.53236 | -0.43818 | 35965 ft | 515 kts | 26° |
| 2026-05-05 01:55 | 39.59225 | -0.38803 | 35963 ft | 515 kts | 27° |
| 2026-05-05 01:55 | 39.65233 | -0.33721 | 35963 ft | 515 kts | 27° |
| 2026-05-05 01:56 | 39.71210 | -0.28646 | 35963 ft | 515 kts | 27° |
| 2026-05-05 01:56 | 39.77209 | -0.23542 | 35963 ft | 515 kts | 27° |
| 2026-05-05 01:57 | 39.83214 | -0.18426 | 35963 ft | 515 kts | 27° |
| 2026-05-05 01:57 | 39.89238 | -0.13347 | 35963 ft | 515 kts | 26° |
| 2026-05-05 01:58 | 39.95277 | -0.08329 | 35963 ft | 515 kts | 26° |
| 2026-05-05 01:58 | 40.01325 | -0.03320 | 35963 ft | 515 kts | 27° |
| 2026-05-05 01:59 | 40.07374 | 0.01708 | 35964 ft | 515 kts | 26° |
| 2026-05-05 01:59 | 40.13388 | 0.06694 | 35879 ft | 516 kts | 26° |
| 2026-05-05 02:00 | 40.16439 | 0.09183 | 35436 ft | 515 kts | 25° |
| 2026-05-05 02:00 | 40.19515 | 0.11476 | 34955 ft | 502 kts | 20° |
| 2026-05-05 02:00 | 40.22648 | 0.13359 | 34472 ft | 487 kts | 15° |
| 2026-05-05 02:00 | 40.25761 | 0.14968 | 33984 ft | 475 kts | 12° |
| 2026-05-05 02:01 | 40.28849 | 0.16410 | 33491 ft | 466 kts | 10° |
| 2026-05-05 02:01 | 40.31870 | 0.17724 | 33000 ft | 459 kts | 9° |
| 2026-05-05 02:01 | 40.34899 | 0.18986 | 32499 ft | 454 kts | 9° |
| 2026-05-05 02:01 | 40.37906 | 0.20208 | 31996 ft | 449 kts | 9° |
| 2026-05-05 02:02 | 40.40880 | 0.21387 | 31494 ft | 444 kts | 8° |
| 2026-05-05 02:02 | 40.43829 | 0.22513 | 30993 ft | 439 kts | 8° |
| 2026-05-05 02:02 | 40.46759 | 0.23601 | 30492 ft | 435 kts | 8° |
| 2026-05-05 02:02 | 40.49666 | 0.24662 | 29991 ft | 432 kts | 8° |
| 2026-05-05 02:03 | 40.52459 | 0.26072 | 29501 ft | 440 kts | 22° |
| 2026-05-05 02:03 | 40.54935 | 0.28508 | 29014 ft | 447 kts | 41° |
| 2026-05-05 02:03 | 40.56834 | 0.31774 | 28528 ft | 449 kts | 58° |
| 2026-05-05 02:03 | 40.58231 | 0.35411 | 28048 ft | 447 kts | 66° |
| 2026-05-05 02:04 | 40.59374 | 0.39218 | 27559 ft | 443 kts | 70° |
| 2026-05-05 02:04 | 40.60362 | 0.42999 | 27071 ft | 440 kts | 73° |
| 2026-05-05 02:04 | 40.61277 | 0.46820 | 26574 ft | 436 kts | 74° |
| 2026-05-05 02:04 | 40.62149 | 0.50631 | 26072 ft | 432 kts | 75° |
| 2026-05-05 02:05 | 40.63000 | 0.54422 | 25569 ft | 428 kts | 75° |
| 2026-05-05 02:05 | 40.63827 | 0.58130 | 25072 ft | 423 kts | 75° |
| 2026-05-05 02:05 | 40.64658 | 0.61853 | 24568 ft | 419 kts | 75° |
| 2026-05-05 02:05 | 40.65467 | 0.65485 | 24072 ft | 415 kts | 76° |
| 2026-05-05 02:06 | 40.66262 | 0.69129 | 23570 ft | 411 kts | 76° |
| 2026-05-05 02:06 | 40.67040 | 0.72747 | 23067 ft | 407 kts | 76° |
| 2026-05-05 02:06 | 40.67804 | 0.76328 | 22566 ft | 403 kts | 76° |
| 2026-05-05 02:06 | 40.68548 | 0.79830 | 22071 ft | 400 kts | 76° |
| 2026-05-05 02:07 | 40.69296 | 0.83358 | 21568 ft | 396 kts | 76° |
| 2026-05-05 02:07 | 40.70050 | 0.86837 | 21066 ft | 392 kts | 76° |
| 2026-05-05 02:07 | 40.70553 | 0.89120 | 20734 ft | 390 kts | 75° |
| 2026-05-05 02:07 | 40.71552 | 0.93640 | 20070 ft | 385 kts | 75° |
| 2026-05-05 02:08 | 40.72059 | 0.95938 | 19730 ft | 383 kts | 75° |
| 2026-05-05 02:08 | 40.72785 | 0.99272 | 19233 ft | 379 kts | 76° |
| 2026-05-05 02:08 | 40.73503 | 1.02600 | 18732 ft | 376 kts | 76° |
| 2026-05-05 02:08 | 40.74224 | 1.05905 | 18231 ft | 373 kts | 75° |
| 2026-05-05 02:09 | 40.74961 | 1.09187 | 17727 ft | 369 kts | 75° |
| 2026-05-05 02:09 | 40.75709 | 1.12386 | 17230 ft | 366 kts | 74° |
| 2026-05-05 02:09 | 40.76474 | 1.15581 | 16728 ft | 363 kts | 73° |
| 2026-05-05 02:09 | 40.77224 | 1.18747 | 16227 ft | 359 kts | 74° |
| 2026-05-05 02:10 | 40.77949 | 1.21851 | 15730 ft | 355 kts | 74° |
| 2026-05-05 02:10 | 40.78671 | 1.24968 | 15227 ft | 351 kts | 74° |
| 2026-05-05 02:10 | 40.79380 | 1.28044 | 14725 ft | 348 kts | 74° |
| 2026-05-05 02:10 | 40.80071 | 1.31055 | 14228 ft | 344 kts | 74° |
| 2026-05-05 02:11 | 40.80760 | 1.34068 | 13727 ft | 340 kts | 74° |
| 2026-05-05 02:11 | 40.81442 | 1.37049 | 13224 ft | 336 kts | 74° |
| 2026-05-05 02:11 | 40.82106 | 1.39958 | 12804 ft | 331 kts | 74° |
| 2026-05-05 02:11 | 40.82766 | 1.42855 | 12427 ft | 327 kts | 74° |
| 2026-05-05 02:12 | 40.83419 | 1.45724 | 12052 ft | 325 kts | 75° |
| 2026-05-05 02:12 | 40.84702 | 1.51390 | 11301 ft | 320 kts | 74° |
| 2026-05-05 02:12 | 40.85333 | 1.54219 | 10924 ft | 318 kts | 74° |
| 2026-05-05 02:13 | 40.85951 | 1.57018 | 10548 ft | 316 kts | 74° |
| 2026-05-05 02:13 | 40.86745 | 1.59705 | 10171 ft | 313 kts | 62° |
| 2026-05-05 02:13 | 40.87870 | 1.62107 | 9809 ft | 310 kts | 54° |
| 2026-05-05 02:13 | 40.89149 | 1.64400 | 9434 ft | 308 kts | 51° |
| 2026-05-05 02:14 | 40.90468 | 1.66621 | 9058 ft | 305 kts | 50° |
| 2026-05-05 02:14 | 40.91795 | 1.68808 | 8680 ft | 302 kts | 50° |
| 2026-05-05 02:14 | 40.93102 | 1.70947 | 8307 ft | 300 kts | 50° |
| 2026-05-05 02:14 | 40.94412 | 1.73086 | 7931 ft | 298 kts | 50° |
| 2026-05-05 02:15 | 40.95717 | 1.75212 | 7554 ft | 296 kts | 50° |
| 2026-05-05 02:15 | 40.97000 | 1.77302 | 7181 ft | 294 kts | 50° |
| 2026-05-05 02:15 | 40.98291 | 1.79402 | 6804 ft | 292 kts | 50° |
| 2026-05-05 02:15 | 40.99560 | 1.81465 | 6431 ft | 290 kts | 50° |
| 2026-05-05 02:16 | 41.00839 | 1.83543 | 6053 ft | 289 kts | 50° |
| 2026-05-05 02:16 | 41.02093 | 1.85579 | 5681 ft | 287 kts | 50° |
| 2026-05-05 02:16 | 41.03357 | 1.87624 | 5305 ft | 285 kts | 50° |
| 2026-05-05 02:16 | 41.04612 | 1.89645 | 4929 ft | 283 kts | 50° |
| 2026-05-05 02:17 | 41.05864 | 1.91650 | 4553 ft | 280 kts | 50° |
| 2026-05-05 02:17 | 41.07094 | 1.93609 | 4181 ft | 278 kts | 50° |
| 2026-05-05 02:17 | 41.08333 | 1.95570 | 3804 ft | 275 kts | 50° |
| 2026-05-05 02:17 | 41.09564 | 1.97506 | 3498 ft | 270 kts | 50° |
| 2026-05-05 02:18 | 41.10802 | 1.99362 | 3254 ft | 268 kts | 44° |
| 2026-05-05 02:18 | 41.12273 | 2.00808 | 3015 ft | 267 kts | 31° |
| 2026-05-05 02:18 | 41.13936 | 2.01897 | 2823 ft | 265 kts | 22° |
| 2026-05-05 02:18 | 41.15611 | 2.02710 | 2740 ft | 244 kts | 18° |
| 2026-05-05 02:19 | 41.17167 | 2.03335 | 2579 ft | 225 kts | 15° |
| 2026-05-05 02:19 | 41.18624 | 2.03893 | 2390 ft | 210 kts | 15° |
| 2026-05-05 02:19 | 41.19958 | 2.04459 | 2198 ft | 195 kts | 17° |
| 2026-05-05 02:19 | 41.21160 | 2.05000 | 1995 ft | 162 kts | 17° |
| 2026-05-05 02:20 | 41.22167 | 2.05462 | 1724 ft | 150 kts | 17° |
| 2026-05-05 02:20 | 41.23146 | 2.05910 | 1463 ft | 147 kts | 17° |
| 2026-05-05 02:20 | 41.24115 | 2.06355 | 1135 ft | 146 kts | 16° |
| 2026-05-05 02:20 | 41.25068 | 2.06789 | 836 ft | 141 kts | 17° |
| 2026-05-05 02:21 | 41.25975 | 2.07201 | 624 ft | 137 kts | 17° |
| 2026-05-05 02:21 | 41.26871 | 2.07609 | 435 ft | 135 kts | 18° |
| 2026-05-05 02:21 | 41.27747 | 2.08009 | 266 ft | 134 kts | 19° |
| 2026-05-05 02:21 | 41.28629 | 2.08414 | 121 ft | 134 kts | 19° |
| 2026-05-05 02:22 | 41.29498 | 2.08811 | 29 ft | 127 kts | 19° |
| 2026-05-05 02:22 | 41.30307 | 2.09182 | 21 ft | 120 kts | 19° |
| 2026-05-05 02:22 | 41.30894 | 2.09452 | 21 ft | 42 kts | 19° |
| 2026-05-05 02:22 | 41.30979 | 2.09491 | 21 ft | 0 kts | 19° |
| 2026-05-05 02:23 | 41.30978 | 2.09490 | 21 ft | 0 kts | 19° |
| 2026-05-05 02:23 | 41.30967 | 2.09485 | 21 ft | 2 kts | 19° |
| 2026-05-05 02:23 | 41.30950 | 2.09477 | 21 ft | 3 kts | 19° |
| 2026-05-05 02:23 | 41.30931 | 2.09469 | 21 ft | 3 kts | 19° |
| 2026-05-05 02:24 | 41.30911 | 2.09460 | 21 ft | 3 kts | 19° |
| 2026-05-05 02:24 | 41.30892 | 2.09451 | 21 ft | 3 kts | 19° |
| 2026-05-05 02:24 | 41.30881 | 2.09446 | 21 ft | 0 kts | 19° |
| 2026-05-05 02:24 | 41.30887 | 2.09448 | 21 ft | 2 kts | 14° |
| 2026-05-05 02:25 | 41.30915 | 2.09441 | 21 ft | 6 kts | 330° |
| 2026-05-05 02:25 | 41.30928 | 2.09383 | 21 ft | 9 kts | 252° |
| 2026-05-05 02:25 | 41.30906 | 2.09313 | 21 ft | 7 kts | 246° |
| 2026-05-05 02:25 | 41.30880 | 2.09236 | 21 ft | 11 kts | 246° |
| 2026-05-05 02:26 | 41.30821 | 2.09150 | 21 ft | 14 kts | 198° |
| 2026-05-05 02:26 | 41.30716 | 2.09103 | 21 ft | 18 kts | 199° |
| 2026-05-05 02:26 | 41.30581 | 2.09042 | 21 ft | 23 kts | 199° |
| 2026-05-05 02:26 | 41.30442 | 2.08978 | 21 ft | 17 kts | 199° |
| 2026-05-05 02:27 | 41.30376 | 2.08859 | 21 ft | 18 kts | 245° |
| 2026-05-05 02:27 | 41.30318 | 2.08689 | 21 ft | 22 kts | 245° |
| 2026-05-05 02:27 | 41.30248 | 2.08484 | 21 ft | 26 kts | 245° |
| 2026-05-05 02:27 | 41.30168 | 2.08251 | 21 ft | 30 kts | 245° |
| 2026-05-05 02:28 | 41.30097 | 2.08045 | 21 ft | 22 kts | 245° |
| 2026-05-05 02:28 | 41.30027 | 2.07841 | 21 ft | 26 kts | 245° |
| 2026-05-05 02:28 | 41.29992 | 2.07732 | 21 ft | 12 kts | 257° |
| 2026-05-05 02:28 | 41.30023 | 2.07669 | 21 ft | 9 kts | 314° |
| 2026-05-05 02:29 | 41.30084 | 2.07627 | 21 ft | 8 kts | 343° |
| 2026-05-05 02:29 | 41.30125 | 2.07645 | 21 ft | 2 kts | 26° |
| 2026-05-05 02:29 | 41.30141 | 2.07655 | 21 ft | 4 kts | 27° |
| 2026-05-05 02:29 | 41.30147 | 2.07659 | 21 ft | 0 kts | 27° |